Time;durP1;ratioP1;P1;durP2;ratioP2;P2;SDS_P1;SDS_P2;PMS_P1;PMS_P2;Temp;Humidity;BMP_temperature;BMP_pressure;BME280_temperature;BME280_humidity;BME280_pressure;Samples;Min_cycle;Max_cycle;Signal;HPM_P1;HPM_P2
2022/01/20 00:02:22;;;;;;;11.75;8.65;;;;;;;3.70;85.94;100441.19;5011175;28;20087;-74
2022/01/20 00:04:52;;;;;;;11.60;8.60;;;;;;;3.78;85.01;100422.19;5011339;28;20045;-73
2022/01/20 00:07:46;;;;;;;10.93;7.97;;;;;;;3.90;84.43;100425.91;5011079;28;20121;-74
2022/01/20 00:26:25;;;;;;;10.00;6.97;;;;;;;4.18;83.28;100406.38;5007196;28;20088;-74
2022/01/20 00:28:55;;;;;;;8.70;6.30;;;;;;;4.19;82.79;100420.31;5007361;28;20127;-74
2022/01/20 00:34:11;;;;;;;9.45;6.32;;;;;;;4.26;83.15;100409.13;5015432;28;20045;-74
2022/01/20 00:39:21;;;;;;;8.75;6.28;;;;;;;4.28;82.91;100412.66;5011479;28;20048;-74
2022/01/20 00:41:47;;;;;;;8.32;6.40;;;;;;;4.31;83.00;100423.16;5015202;28;20038;-74
2022/01/20 00:44:13;;;;;;;8.75;5.95;;;;;;;4.28;83.29;100436.19;5015050;28;20049;-74
2022/01/20 00:46:38;;;;;;;8.27;6.32;;;;;;;4.31;83.61;100433.59;5014782;28;20125;-73
2022/01/20 00:49:03;;;;;;;8.85;6.20;;;;;;;4.23;84.57;100431.72;5015165;28;20042;-74
2022/01/20 00:51:29;;;;;;;8.40;6.50;;;;;;;4.14;85.57;100435.06;5015036;28;20026;-73
2022/01/20 00:53:54;;;;;;;9.85;7.10;;;;;;;4.04;86.46;100431.38;5015038;28;20407;-74
2022/01/20 00:56:20;;;;;;;8.13;5.35;;;;;;;4.04;86.47;100435.75;5014612;28;20033;-74
2022/01/20 00:58:45;;;;;;;8.43;6.03;;;;;;;4.07;86.37;100448.84;5013514;28;20084;-74
2022/01/20 01:01:11;;;;;;;9.77;6.90;;;;;;;4.06;86.20;100442.75;5013711;28;20046;-74
2022/01/20 01:03:37;;;;;;;9.50;6.68;;;;;;;4.03;86.94;100436.56;5013580;28;20033;-74
2022/01/20 01:06:26;;;;;;;11.15;6.68;;;;;;;4.02;86.82;100437.44;5013109;28;20065;-74
2022/01/20 01:08:52;;;;;;;9.82;6.05;;;;;;;3.99;86.45;100434.78;5022957;28;20401;-74
2022/01/20 01:11:18;;;;;;;8.82;5.85;;;;;;;3.97;86.46;100442.56;5014636;28;20068;-74
2022/01/20 01:13:45;;;;;;;8.15;5.05;;;;;;;4.08;85.70;100448.84;5013390;28;20067;-74
2022/01/20 01:16:12;;;;;;;9.63;5.93;;;;;;;4.07;86.06;100448.84;5014408;28;20038;-74
2022/01/20 01:21:43;;;;;;;11.05;4.78;;;;;;;4.05;85.89;100456.63;5012068;28;20033;-74
2022/01/20 01:24:09;;;;;;;6.40;4.40;;;;;;;4.04;85.95;100501.03;5012639;28;20048;-74
2022/01/20 01:26:35;;;;;;;8.98;3.72;;;;;;;3.62;84.71;100502.78;5029074;28;20034;-75
2022/01/20 01:29:02;;;;;;;7.60;3.08;;;;;;;2.77;87.09;100504.25;5013098;28;20057;-76
2022/01/20 01:31:37;;;;;;;7.63;3.15;;;;;;;2.49;90.18;100495.75;5019472;28;20433;-75
2022/01/20 01:34:12;;;;;;;6.82;2.85;;;;;;;2.52;91.55;100500.16;5009823;28;20040;-75
2022/01/20 01:37:34;;;;;;;6.80;2.80;;;;;;;2.60;91.39;100496.03;5023741;28;20117;-74
2022/01/20 01:39:30;;;;;;;8.35;2.72;;;;;;;2.69;91.68;100478.00;5023552;28;20496;-74
2022/01/20 01:41:57;;;;;;;7.88;2.40;;;;;;;2.77;90.97;100480.81;5008861;28;20033;-74
2022/01/20 01:44:27;;;;;;;8.52;2.80;;;;;;;2.82;91.32;100466.16;5013755;28;20038;-74
2022/01/20 01:46:57;;;;;;;13.80;2.97;;;;;;;2.85;91.07;100482.75;5013688;28;20049;-74
2022/01/20 01:49:22;;;;;;;11.88;3.83;;;;;;;2.84;91.32;100477.50;5011546;28;20041;-74
2022/01/20 01:51:49;;;;;;;11.02;3.30;;;;;;;2.89;91.21;100488.06;5023888;28;20037;-74
2022/01/20 01:54:16;;;;;;;11.05;3.90;;;;;;;2.90;91.01;100479.38;5029104;28;20038;-74
2022/01/20 01:56:44;;;;;;;7.57;3.42;;;;;;;2.83;91.48;100455.78;5012239;28;20028;-74
2022/01/20 01:59:12;;;;;;;8.15;4.70;;;;;;;2.82;92.36;100468.78;5016814;28;20038;-74
2022/01/20 02:01:58;;;;;;;10.30;5.25;;;;;;;2.88;92.32;100476.72;5018702;28;20037;-74
2022/01/20 02:04:24;;;;;;;13.25;6.00;;;;;;;3.02;92.70;100480.56;5012237;28;20041;-74
2022/01/20 02:07:27;;;;;;;15.25;6.80;;;;;;;3.11;92.28;100477.28;5012250;28;20045;-74
2022/01/20 02:20:26;;;;;;;20.95;4.07;;;;;;;3.17;87.24;100456.56;5012165;28;20033;-74
2022/01/20 02:22:57;;;;;;;23.33;4.95;;;;;;;3.15;86.51;100473.91;5008292;28;20033;-74
2022/01/20 02:25:34;;;;;;;18.02;3.20;;;;;;;3.12;86.11;100472.94;5008565;28;20088;-74
2022/01/20 02:28:03;;;;;;;25.83;3.35;;;;;;;3.05;85.67;100484.97;5012380;28;20038;-74
2022/01/20 02:30:30;;;;;;;17.13;3.78;;;;;;;3.19;84.21;100474.84;5028115;28;20493;-73
2022/01/20 02:33:03;;;;;;;19.80;3.47;;;;;;;3.22;83.72;100473.22;5011830;28;20072;-74
2022/01/20 02:35:32;;;;;;;16.15;3.60;;;;;;;3.28;83.06;100452.47;5009541;28;20097;-74
2022/01/20 02:38:14;;;;;;;25.55;4.55;;;;;;;3.21;83.25;100461.00;5011525;28;20079;-74
2022/01/20 02:45:55;;;;;;;25.27;3.08;;;;;;;3.51;81.78;100467.72;5010897;28;20038;-75
2022/01/20 02:48:21;;;;;;;14.23;3.72;;;;;;;3.58;81.54;100460.91;5012624;28;20107;-74
2022/01/20 02:50:47;;;;;;;19.63;3.20;;;;;;;3.61;80.93;100469.69;5011570;28;20078;-74
2022/01/20 02:53:12;;;;;;;20.90;3.30;;;;;;;3.58;82.14;100482.66;5011474;28;20489;-74
2022/01/20 02:55:37;;;;;;;23.00;4.15;;;;;;;3.35;83.72;100510.84;5011188;28;20038;-75
2022/01/20 02:58:03;;;;;;;37.58;5.28;;;;;;;2.62;87.89;100461.38;5012717;28;20037;-76
2022/01/20 03:00:31;;;;;;;19.38;3.45;;;;;;;2.36;89.70;100481.53;5026180;28;20054;-75
2022/01/20 03:02:57;;;;;;;16.75;1.83;;;;;;;2.12;90.20;100476.56;5010753;28;20037;-75
2022/01/20 03:05:23;;;;;;;16.92;2.42;;;;;;;2.01;90.98;100484.91;5012088;28;20030;-75
2022/01/20 03:07:56;;;;;;;15.30;2.75;;;;;;;1.97;90.60;100478.75;5004264;28;20056;-75
2022/01/20 03:10:21;;;;;;;18.90;2.40;;;;;;;1.90;91.14;100471.59;5010502;28;20492;-75
2022/01/20 03:12:46;;;;;;;18.42;2.22;;;;;;;1.87;91.25;100481.94;5012382;28;20029;-75
2022/01/20 03:15:12;;;;;;;20.60;2.83;;;;;;;1.88;91.16;100470.66;5010931;28;20049;-75
2022/01/20 03:17:37;;;;;;;18.67;2.85;;;;;;;1.87;91.06;100471.50;5012137;28;20400;-75
2022/01/20 03:20:03;;;;;;;18.75;2.85;;;;;;;1.87;90.83;100482.81;5011096;28;20033;-75
2022/01/20 03:22:28;;;;;;;13.02;2.38;;;;;;;1.88;90.55;100474.13;5011034;28;20102;-75
2022/01/20 03:24:55;;;;;;;21.75;3.38;;;;;;;1.86;90.02;100482.75;5011966;28;20033;-75
2022/01/20 03:27:21;;;;;;;27.85;4.15;;;;;;;1.93;88.93;100482.09;5018349;28;20087;-75
2022/01/20 03:29:47;;;;;;;22.67;3.78;;;;;;;1.99;87.93;100469.22;5009844;28;20125;-75
2022/01/20 03:32:12;;;;;;;26.30;4.28;;;;;;;2.04;87.00;100479.78;5011971;28;20065;-75
2022/01/20 03:34:37;;;;;;;21.65;4.15;;;;;;;2.09;85.66;100488.59;5011851;28;20045;-75
2022/01/20 03:37:09;;;;;;;28.33;4.72;;;;;;;2.11;85.68;100485.19;5010226;28;20032;-75
2022/01/20 03:39:50;;;;;;;19.73;2.58;;;;;;;2.14;84.81;100487.88;5010634;28;20036;-75
2022/01/20 03:42:16;;;;;;;19.08;3.38;;;;;;;2.17;83.92;100487.97;5010470;28;20116;-75
2022/01/20 03:44:41;;;;;;;30.77;5.20;;;;;;;2.14;83.75;100482.66;5010350;28;20038;-75
2022/01/20 03:47:08;;;;;;;20.17;4.00;;;;;;;2.26;82.89;100484.75;5010459;28;20026;-75
2022/01/20 03:49:53;;;;;;;28.35;3.05;;;;;;;2.14;83.36;100485.28;5010685;28;20149;-75
2022/01/20 03:52:19;;;;;;;31.42;4.35;;;;;;;2.16;82.79;100470.56;5010592;28;20049;-75
2022/01/20 03:54:44;;;;;;;23.88;4.00;;;;;;;2.15;82.33;100480.97;5010157;28;20029;-75
2022/01/20 03:57:17;;;;;;;16.35;2.65;;;;;;;2.14;82.52;100467.03;5011473;28;20038;-75
2022/01/20 03:59:52;;;;;;;25.25;4.82;;;;;;;2.07;82.34;100480.75;5008591;28;20140;-75
2022/01/20 04:02:26;;;;;;;17.35;3.38;;;;;;;2.11;81.95;100479.13;5010098;28;20460;-75
2022/01/20 04:05:01;;;;;;;20.35;3.08;;;;;;;2.08;82.53;100487.72;5008183;28;20034;-75
2022/01/20 04:07:30;;;;;;;19.80;3.42;;;;;;;2.11;81.78;100490.41;5009888;28;20033;-75
2022/01/20 04:09:56;;;;;;;24.65;2.80;;;;;;;2.11;81.91;100471.31;5011590;28;20416;-75
2022/01/20 04:12:21;;;;;;;26.30;4.70;;;;;;;2.22;80.73;100476.78;5009809;28;20037;-75
2022/01/20 04:14:48;;;;;;;17.13;2.70;;;;;;;2.18;81.02;100468.03;5009865;28;20042;-75
2022/01/20 04:17:19;;;;;;;20.23;3.60;;;;;;;2.14;81.14;100464.44;5018610;28;20492;-75
2022/01/20 04:19:44;;;;;;;17.55;3.17;;;;;;;2.11;80.47;100472.19;5010257;28;20033;-75
2022/01/20 04:22:10;;;;;;;19.73;3.00;;;;;;;2.11;80.66;100466.97;5011221;28;20404;-75
2022/01/20 04:24:41;;;;;;;16.55;2.88;;;;;;;2.17;80.28;100450.63;5009847;28;20040;-75
2022/01/20 04:27:06;;;;;;;15.45;2.53;;;;;;;2.24;79.58;100446.47;5006489;28;20121;-75
2022/01/20 04:29:35;;;;;;;20.42;3.97;;;;;;;2.28;79.37;100459.63;5010066;28;20034;-75
2022/01/20 04:32:02;;;;;;;23.45;3.22;;;;;;;2.41;77.90;100456.50;5010106;28;20034;-76
2022/01/20 04:34:28;;;;;;;13.98;2.20;;;;;;;2.50;77.25;100445.41;5009859;28;20037;-76
2022/01/20 04:36:55;;;;;;;22.17;3.05;;;;;;;2.61;76.42;100446.56;5009987;28;20030;-75
2022/01/20 04:39:24;;;;;;;14.68;2.58;;;;;;;2.72;76.56;100445.94;5011384;28;20052;-75
2022/01/20 04:41:52;;;;;;;19.88;3.58;;;;;;;2.76;76.09;100429.53;5015151;28;20065;-75
2022/01/20 04:44:36;;;;;;;16.25;2.85;;;;;;;2.72;76.47;100425.09;5009880;28;20044;-75
2022/01/20 04:57:53;;;;;;;14.50;2.35;;;;;;;2.85;76.35;100414.09;5009561;28;20041;-76
2022/01/20 05:00:19;;;;;;;18.88;2.78;;;;;;;2.85;76.60;100406.28;5009153;28;20034;-76
2022/01/20 05:03:24;;;;;;;16.17;2.85;;;;;;;2.90;77.10;100407.28;5010628;28;20041;-75
2022/01/20 05:05:50;;;;;;;14.15;2.45;;;;;;;2.86;77.11;100402.84;5009532;28;20440;-76
2022/01/20 05:08:23;;;;;;;16.02;2.78;;;;;;;2.89;77.20;100396.81;5011027;28;20030;-75
2022/01/20 05:10:52;;;;;;;13.77;2.30;;;;;;;2.85;77.55;100388.03;5009449;28;20034;-75
2022/01/20 05:13:31;;;;;;;14.25;3.30;;;;;;;2.84;77.41;100386.28;5009160;28;20057;-75
2022/01/20 05:15:56;;;;;;;17.38;2.42;;;;;;;2.90;78.09;100377.72;5010756;28;20568;-74
2022/01/20 05:18:22;;;;;;;23.30;2.50;;;;;;;2.98;77.39;100358.78;5012808;28;20113;-75
2022/01/20 05:20:49;;;;;;;9.85;2.00;;;;;;;3.07;77.21;100356.38;5007546;28;20030;-74
2022/01/20 05:23:14;;;;;;;11.93;2.85;;;;;;;3.07;77.08;100372.03;5029494;28;20030;-74
2022/01/20 05:25:40;;;;;;;15.70;2.92;;;;;;;3.12;77.18;100395.59;5013071;28;20568;-75
2022/01/20 05:28:06;;;;;;;13.38;2.90;;;;;;;3.05;78.09;100405.00;5021462;28;20037;-74
2022/01/20 05:30:32;;;;;;;13.90;2.50;;;;;;;2.95;79.20;100384.78;5013065;28;20056;-74
2022/01/20 05:33:15;;;;;;;15.85;2.58;;;;;;;2.76;82.03;100396.53;5009735;28;20431;-74
2022/01/20 05:35:41;;;;;;;19.42;2.90;;;;;;;2.51;83.29;100391.56;5010835;28;20187;-74
2022/01/20 05:38:07;;;;;;;17.20;2.50;;;;;;;2.41;84.94;100387.84;5010872;28;20395;-74
2022/01/20 05:40:34;;;;;;;15.18;2.65;;;;;;;2.34;85.71;100380.75;5011246;28;20038;-74
2022/01/20 05:43:01;;;;;;;20.17;3.80;;;;;;;2.34;86.24;100380.75;5011073;28;20045;-74
2022/01/20 05:45:27;;;;;;;15.07;3.58;;;;;;;2.37;86.34;100380.84;5011064;28;20030;-75
2022/01/20 05:48:00;;;;;;;21.20;3.20;;;;;;;2.43;86.50;100375.75;5010430;28;20369;-74
2022/01/20 05:50:48;;;;;;;19.63;3.25;;;;;;;2.34;86.54;100376.44;5011775;28;20054;-74
2022/01/20 05:53:13;;;;;;;20.50;3.45;;;;;;;2.38;86.91;100370.47;5009994;28;20025;-74
2022/01/20 05:55:38;;;;;;;20.67;3.85;;;;;;;2.42;86.93;100384.44;5012505;28;20058;-74
2022/01/20 05:58:06;;;;;;;14.57;2.92;;;;;;;2.47;86.04;100351.56;5012387;28;20022;-74
2022/01/20 06:00:34;;;;;;;19.27;3.38;;;;;;;2.48;86.67;100355.03;5019904;28;20114;-75
2022/01/20 06:05:46;;;;;;;26.38;3.42;;;;;;;2.43;87.93;100370.56;5005825;28;20141;-74
2022/01/20 06:08:13;;;;;;;15.02;2.78;;;;;;;2.40;88.42;100386.13;5009782;28;20028;-74
2022/01/20 06:10:39;;;;;;;21.80;3.40;;;;;;;2.41;89.22;100372.22;5013341;28;20038;-74
2022/01/20 06:13:22;;;;;;;19.38;4.13;;;;;;;2.35;89.58;100375.56;5008801;28;20037;-75
2022/01/20 06:15:47;;;;;;;20.38;4.30;;;;;;;2.39;89.68;100379.16;5020397;28;20500;-74
2022/01/20 06:18:14;;;;;;;17.67;3.10;;;;;;;2.39;90.02;100371.34;5012024;28;20121;-74
2022/01/20 06:20:46;;;;;;;20.67;4.15;;;;;;;2.45;90.15;100366.25;5020385;28;20567;-74
2022/01/20 06:23:12;;;;;;;14.60;2.67;;;;;;;2.42;90.99;100354.06;5012149;28;20088;-74
2022/01/20 06:25:37;;;;;;;22.10;3.97;;;;;;;2.46;91.35;100351.50;5020214;28;20041;-74
2022/01/20 06:28:04;;;;;;;16.15;3.13;;;;;;;2.46;91.14;100368.00;5010532;28;20045;-74
2022/01/20 06:30:32;;;;;;;14.82;2.88;;;;;;;2.49;91.24;100369.81;5013009;28;20412;-74
2022/01/20 06:32:59;;;;;;;17.35;2.80;;;;;;;2.54;90.79;100345.66;5011962;28;20029;-75
2022/01/20 06:35:30;;;;;;;14.43;2.67;;;;;;;2.62;90.34;100371.91;5021898;28;20038;-74
2022/01/20 06:37:55;;;;;;;16.05;2.42;;;;;;;2.64;89.88;100391.91;5012954;28;20032;-74
2022/01/20 06:40:21;;;;;;;18.48;3.47;;;;;;;2.54;90.53;100462.00;5010694;28;20038;-74
2022/01/20 06:42:47;;;;;;;12.50;2.03;;;;;;;1.73;90.72;100458.13;5014925;28;20034;-79
2022/01/20 06:45:14;;;;;;;8.73;1.45;;;;;;;0.96;92.64;100499.13;5011186;28;20042;-76
2022/01/20 06:47:42;;;;;;;8.70;1.70;;;;;;;0.61;93.79;100486.75;5011186;28;20042;-75
2022/01/20 06:50:10;;;;;;;5.80;1.00;;;;;;;0.43;94.70;100520.75;5011549;28;20026;-75
2022/01/20 06:52:37;;;;;;;5.90;1.50;;;;;;;0.41;94.06;100501.66;5019988;28;20053;-75
2022/01/20 06:55:05;;;;;;;5.00;0.93;;;;;;;0.44;91.96;100493.94;5010380;28;20041;-76
2022/01/20 06:57:32;;;;;;;6.43;0.97;;;;;;;0.49;91.86;100490.66;5013517;28;20133;-77
2022/01/20 06:59:57;;;;;;;5.23;1.17;;;;;;;0.47;91.70;100489.69;5018816;28;20033;-81
2022/01/20 07:02:24;;;;;;;6.70;1.37;;;;;;;0.49;91.14;100478.53;5024855;28;20053;-81
2022/01/20 07:04:50;;;;;;;6.23;1.37;;;;;;;0.50;91.11;100482.00;5014054;28;20045;-81
2022/01/20 07:07:18;;;;;;;5.73;1.20;;;;;;;0.54;88.89;100476.97;5012462;28;20022;-79
2022/01/20 07:10:02;;;;;;;8.60;0.87;;;;;;;0.56;89.72;100482.25;5009087;28;20029;-78
2022/01/20 07:12:39;;;;;;;7.57;1.53;;;;;;;0.56;90.27;100472.72;5008951;28;20030;-78
2022/01/20 07:15:05;;;;;;;3.80;0.80;;;;;;;0.55;91.62;100470.06;5009401;28;20069;-78
2022/01/20 07:17:31;;;;;;;3.17;0.70;;;;;;;0.51;92.46;100476.88;5010426;28;20117;-78
2022/01/20 07:19:56;;;;;;;3.30;0.70;;;;;;;0.57;92.25;100481.38;5011332;28;20069;-77
2022/01/20 07:22:23;;;;;;;5.87;1.00;;;;;;;0.59;91.87;100490.13;5011047;28;20116;-77
2022/01/20 07:24:52;;;;;;;6.93;1.20;;;;;;;0.61;91.68;100519.63;5010753;28;20037;-77
2022/01/20 07:27:29;;;;;;;6.53;1.03;;;;;;;0.63;90.82;100503.28;5018823;28;20040;-77
2022/01/20 07:29:54;;;;;;;7.17;0.93;;;;;;;0.61;91.29;100511.84;5019311;28;20038;-77
2022/01/20 07:32:20;;;;;;;8.07;1.57;;;;;;;0.64;90.35;100510.22;5010143;28;20022;-77
2022/01/20 07:34:46;;;;;;;10.67;1.63;;;;;;;0.63;89.83;100507.59;5010504;28;20176;-77
2022/01/20 07:37:12;;;;;;;9.63;1.10;;;;;;;0.62;90.47;100521.38;5010681;28;20045;-77
2022/01/20 07:39:37;;;;;;;7.20;1.47;;;;;;;0.65;89.87;100521.47;5019594;28;20030;-77
2022/01/20 07:42:04;;;;;;;9.23;1.63;;;;;;;0.68;89.63;100531.09;5026562;28;20044;-76
2022/01/20 07:44:48;;;;;;;11.37;1.60;;;;;;;0.67;88.67;100535.41;5009761;28;20419;-77
2022/01/20 07:47:26;;;;;;;13.17;2.40;;;;;;;0.63;87.79;100559.53;5010346;28;20042;-77
2022/01/20 07:49:51;;;;;;;6.93;1.60;;;;;;;0.61;87.34;100556.88;5012063;28;20038;-77
2022/01/20 07:52:17;;;;;;;11.03;1.57;;;;;;;0.55;87.24;100556.69;5011210;28;20119;-77
2022/01/20 07:54:42;;;;;;;18.57;2.47;;;;;;;0.59;86.88;100557.66;5009634;28;20401;-77
2022/01/20 07:57:09;;;;;;;9.90;1.63;;;;;;;0.57;86.55;100559.31;5009078;28;20022;-78
2022/01/20 07:59:35;;;;;;;11.53;2.20;;;;;;;0.63;86.84;100573.41;5012041;28;20059;-78
2022/01/20 08:02:01;;;;;;;11.30;1.90;;;;;;;0.63;86.17;100598.50;5011046;28;20523;-79
2022/01/20 08:04:26;;;;;;;12.10;1.20;;;;;;;0.67;84.58;100600.34;5012503;28;20512;-79
2022/01/20 08:06:54;;;;;;;6.57;1.33;;;;;;;0.68;83.61;100614.22;5019641;28;20038;-80
2022/01/20 08:09:23;;;;;;;13.63;1.60;;;;;;;0.67;82.37;100602.94;5013244;28;20096;-80
2022/01/20 08:12:01;;;;;;;10.53;1.50;;;;;;;0.72;82.63;100605.72;5013168;28;20194;-80
2022/01/20 08:14:45;;;;;;;8.50;1.57;;;;;;;0.67;80.76;100654.91;5026631;28;20080;-81
2022/01/20 08:17:17;;;;;;;14.03;2.60;;;;;;;0.77;79.23;100635.34;5012800;28;20097;-81
2022/01/20 08:19:46;;;;;;;9.77;2.23;;;;;;;0.75;77.71;100635.28;5030962;28;20030;-81
2022/01/20 08:22:12;;;;;;;13.70;2.43;;;;;;;0.81;78.48;100647.59;5022745;28;20467;-82
2022/01/20 08:24:37;;;;;;;12.27;2.43;;;;;;;0.83;78.45;100646.81;5021112;28;20033;-82
2022/01/20 08:27:03;;;;;;;9.57;1.93;;;;;;;0.85;78.57;100657.28;5018058;28;20038;-82
2022/01/20 08:29:28;;;;;;;10.00;1.57;;;;;;;0.79;78.45;100683.94;5017423;28;20030;-83
2022/01/20 08:31:54;;;;;;;13.13;1.90;;;;;;;0.85;78.43;100652.94;5015443;28;20030;-84
2022/01/20 08:34:30;;;;;;;12.73;2.63;;;;;;;0.89;78.57;100651.34;5012534;28;20042;-84
2022/01/20 08:37:14;;;;;;;13.50;2.00;;;;;;;0.87;79.43;100681.59;5016049;28;20037;-85
2022/01/20 08:39:40;;;;;;;7.90;1.53;;;;;;;0.83;79.63;100672.78;5016444;28;20030;-84
2022/01/20 08:42:07;;;;;;;10.93;1.80;;;;;;;0.83;79.36;100678.00;5015806;28;20064;-85
2022/01/20 08:44:32;;;;;;;9.93;2.10;;;;;;;0.79;77.77;100676.13;5016355;28;20040;-85
2022/01/20 08:46:58;;;;;;;11.03;1.70;;;;;;;0.78;75.84;100697.72;5017124;28;20030;-85
2022/01/20 08:49:25;;;;;;;11.03;1.70;;;;;;;0.86;75.99;100683.31;5015155;28;20092;-85
2022/01/20 08:51:55;;;;;;;12.17;1.73;;;;;;;0.82;77.13;100689.22;5015255;28;20030;-83
2022/01/20 08:54:26;;;;;;;11.80;1.80;;;;;;;0.81;75.88;100705.66;5016998;28;20061;-84
2022/01/20 08:57:02;;;;;;;12.50;2.27;;;;;;;0.78;75.32;100728.03;5015247;28;20030;-83
2022/01/20 08:59:28;;;;;;;9.93;1.60;;;;;;;0.79;76.01;100722.03;5014675;28;20088;-82
2022/01/20 09:01:54;;;;;;;16.00;2.27;;;;;;;0.74;75.91;100714.06;5018312;28;20053;-82
2022/01/20 09:04:19;;;;;;;8.93;1.50;;;;;;;0.70;75.62;100701.75;5014595;28;20072;-82
2022/01/20 09:07:07;;;;;;;9.60;1.40;;;;;;;0.67;74.31;100706.84;5015423;28;20048;-82
2022/01/20 09:09:40;;;;;;;11.57;2.13;;;;;;;0.67;74.15;100690.41;5014752;28;20093;-81
2022/01/20 09:17:20;;;;;;;15.90;2.60;;;;;;;0.62;73.96;100703.19;5015892;28;20512;-80
2022/01/20 09:19:46;;;;;;;15.40;2.93;;;;;;;0.65;74.05;100716.28;5016935;28;20096;-79
2022/01/20 09:22:12;;;;;;;20.60;2.90;;;;;;;0.65;74.09;100698.13;5015344;28;20033;-79
2022/01/20 09:24:38;;;;;;;14.37;2.23;;;;;;;0.68;73.10;100705.13;5013035;28;20031;-79
2022/01/20 09:27:05;;;;;;;15.63;2.93;;;;;;;0.71;73.42;100732.13;5014981;28;20029;-79
2022/01/20 09:29:30;;;;;;;11.70;1.80;;;;;;;0.77;71.63;100708.97;5014067;28;20121;-79
2022/01/20 09:31:56;;;;;;;16.13;2.20;;;;;;;0.76;71.79;100759.16;5013658;28;20381;-78
2022/01/20 09:34:26;;;;;;;13.80;1.90;;;;;;;0.76;73.45;100716.69;5013100;28;20036;-78
2022/01/20 09:36:52;;;;;;;11.87;2.10;;;;;;;0.77;72.95;100740.13;5021294;28;20038;-78
2022/01/20 09:39:18;;;;;;;11.73;2.33;;;;;;;0.79;72.70;100748.88;5011861;28;20554;-78
2022/01/20 09:42:09;;;;;;;15.23;2.40;;;;;;;0.81;71.96;100746.31;5012602;28;20049;-77
2022/01/20 09:44:36;;;;;;;14.37;1.73;;;;;;;0.85;71.61;100743.91;5029206;28;20557;-78
2022/01/20 09:47:03;;;;;;;12.80;1.87;;;;;;;0.86;69.89;100750.88;5012555;28;20034;-78
2022/01/20 09:49:51;;;;;;;13.33;2.20;;;;;;;0.88;70.69;100777.78;5019584;28;20672;-78
2022/01/20 09:52:28;;;;;;;11.83;2.43;;;;;;;1.00;71.67;100742.69;5021225;28;20033;-77
2022/01/20 09:55:10;;;;;;;16.90;1.80;;;;;;;1.01;69.84;100745.34;5010018;28;20141;-77
2022/01/20 09:57:36;;;;;;;14.07;2.40;;;;;;;1.01;69.70;100765.25;5012348;28;20552;-77
2022/01/20 10:00:08;;;;;;;12.80;3.17;;;;;;;1.11;70.80;100741.34;5012331;28;20488;-78
2022/01/20 10:02:53;;;;;;;16.17;2.33;;;;;;;1.16;70.55;100765.81;5013991;28;20069;-77
2022/01/20 10:05:30;;;;;;;14.30;2.87;;;;;;;1.18;70.36;100750.25;5012291;28;20149;-78
2022/01/20 10:08:04;;;;;;;13.23;2.07;;;;;;;1.21;70.04;100769.44;5025469;28;20071;-78
2022/01/20 10:10:44;;;;;;;14.03;3.63;;;;;;;1.25;70.03;100753.09;5012506;28;20052;-77
2022/01/20 10:13:24;;;;;;;11.33;2.17;;;;;;;1.30;69.91;100759.34;5010992;28;20063;-77
2022/01/20 10:16:12;;;;;;;17.13;3.17;;;;;;;1.32;69.16;100759.41;5011382;28;20036;-78
2022/01/20 10:18:57;;;;;;;17.23;2.73;;;;;;;1.35;69.70;100761.25;5006640;28;20088;-78
2022/01/20 10:21:35;;;;;;;14.80;3.00;;;;;;;1.38;69.24;100771.75;5011015;28;20034;-77
2022/01/20 10:24:19;;;;;;;13.90;2.30;;;;;;;1.43;69.78;100767.59;5011005;28;20044;-78
2022/01/20 10:26:55;;;;;;;10.70;2.70;;;;;;;1.44;69.51;100756.34;5013371;28;20030;-78
2022/01/20 10:29:21;;;;;;;17.03;3.10;;;;;;;1.51;71.32;100756.59;5020531;28;20096;-78
2022/01/20 10:31:51;;;;;;;13.40;2.40;;;;;;;1.61;68.95;100773.41;5012419;28;20061;-77
2022/01/20 10:34:30;;;;;;;12.83;3.30;;;;;;;1.68;69.85;100771.94;5012143;28;20072;-78
2022/01/20 10:37:16;;;;;;;19.95;3.90;;;;;;;1.70;67.93;100765.94;5016207;28;20655;-77
2022/01/20 10:39:50;;;;;;;17.73;2.80;;;;;;;1.69;68.58;100777.16;5019455;28;20099;-77
2022/01/20 10:42:21;;;;;;;15.03;3.30;;;;;;;1.74;68.09;100762.59;5019922;28;20030;-77
2022/01/20 10:44:53;;;;;;;21.98;3.40;;;;;;;1.78;66.31;100806.94;5011272;28;20061;-77
2022/01/20 10:47:24;;;;;;;18.73;3.13;;;;;;;1.83;66.82;100774.13;5010481;28;20034;-77
2022/01/20 10:49:51;;;;;;;16.42;3.00;;;;;;;1.78;66.89;100773.97;5012442;28;20093;-77
2022/01/20 10:52:22;;;;;;;21.05;3.53;;;;;;;1.78;67.54;100757.47;5027090;28;20049;-77
2022/01/20 10:54:51;;;;;;;17.50;3.63;;;;;;;1.83;68.02;100750.72;5007521;28;20109;-77
2022/01/20 10:57:29;;;;;;;15.55;2.95;;;;;;;1.82;66.57;100748.94;5027095;28;20091;-77
2022/01/20 11:00:02;;;;;;;20.13;3.33;;;;;;;1.86;67.39;100733.50;5010856;28;20033;-77
2022/01/20 11:02:41;;;;;;;18.50;3.20;;;;;;;1.81;66.84;100747.16;5007471;28;20041;-77
2022/01/20 11:05:07;;;;;;;14.88;3.40;;;;;;;1.87;66.97;100750.00;5008845;28;20092;-77
2022/01/20 11:07:35;;;;;;;16.67;2.95;;;;;;;1.91;67.20;100754.44;5009084;28;20117;-77
2022/01/20 11:10:03;;;;;;;13.03;2.73;;;;;;;1.92;66.57;100751.91;5009746;28;20111;-77
2022/01/20 11:12:47;;;;;;;16.45;3.05;;;;;;;1.99;66.32;100765.97;5009966;28;20420;-77
2022/01/20 11:15:26;;;;;;;16.10;2.72;;;;;;;2.04;66.59;100745.31;5009110;28;20108;-77
2022/01/20 11:17:55;;;;;;;18.55;3.15;;;;;;;2.09;66.23;100770.66;5009877;28;20033;-76
2022/01/20 11:20:25;;;;;;;16.00;2.83;;;;;;;2.07;65.47;100756.72;5010672;28;20076;-77
2022/01/20 11:22:57;;;;;;;20.70;3.37;;;;;;;2.08;66.25;100748.06;5010982;28;20125;-77
2022/01/20 11:25:37;;;;;;;20.23;4.23;;;;;;;2.05;64.39;100753.19;5015873;28;20129;-77
2022/01/20 11:28:23;;;;;;;19.17;2.63;;;;;;;2.05;65.34;100765.31;5010720;28;20068;-77
2022/01/20 11:30:54;;;;;;;14.05;2.17;;;;;;;2.05;65.37;100747.09;5007417;28;20163;-77
2022/01/20 11:33:26;;;;;;;11.20;2.40;;;;;;;2.06;66.53;100746.25;5010300;28;20645;-77
2022/01/20 11:35:59;;;;;;;14.02;2.92;;;;;;;2.13;65.57;100746.50;5005502;28;20025;-77
2022/01/20 11:38:45;;;;;;;18.20;3.45;;;;;;;2.17;65.08;100740.56;5010984;28;20120;-77
2022/01/20 11:41:14;;;;;;;13.73;2.13;;;;;;;2.21;64.56;100759.75;5011970;28;20040;-76
2022/01/20 11:43:43;;;;;;;12.40;2.28;;;;;;;2.23;64.04;100741.56;5011130;28;20033;-76
2022/01/20 11:46:15;;;;;;;10.68;2.42;;;;;;;2.25;64.07;100743.38;5011290;28;20096;-76
2022/01/20 11:49:00;;;;;;;14.68;2.53;;;;;;;2.20;62.29;100747.56;5011670;28;20049;-77
2022/01/20 11:51:48;;;;;;;17.27;3.40;;;;;;;2.19;63.69;100740.59;5011684;28;20034;-77
2022/01/20 11:54:27;;;;;;;11.32;2.00;;;;;;;2.16;63.58;100748.31;5010141;28;20484;-76
2022/01/20 11:57:06;;;;;;;15.93;2.55;;;;;;;2.12;64.64;100728.19;5011574;28;20084;-77
2022/01/20 11:59:43;;;;;;;13.45;2.10;;;;;;;2.18;64.11;100747.53;5008132;28;20390;-78
2022/01/20 12:02:10;;;;;;;23.15;3.75;;;;;;;2.29;64.17;100747.84;5008829;28;20038;-76
2022/01/20 12:04:38;;;;;;;12.88;2.55;;;;;;;2.58;63.01;100745.25;5008928;28;20072;-76
2022/01/20 12:07:11;;;;;;;17.40;2.85;;;;;;;2.64;63.32;100748.00;5009869;28;20049;-76
2022/01/20 12:09:39;;;;;;;17.90;2.92;;;;;;;2.63;63.10;100741.06;5009789;28;20038;-76
2022/01/20 12:12:23;;;;;;;13.18;2.35;;;;;;;2.52;60.51;100748.56;5011005;28;20120;-76
2022/01/20 12:14:48;;;;;;;15.25;2.35;;;;;;;2.53;61.87;100736.41;5011055;28;20034;-76
2022/01/20 12:17:15;;;;;;;9.90;1.92;;;;;;;2.56;60.25;100732.16;5010277;28;20100;-75
2022/01/20 12:19:43;;;;;;;12.05;1.95;;;;;;;2.58;60.28;100743.50;5010056;28;20041;-73
2022/01/20 12:22:09;;;;;;;15.65;2.80;;;;;;;2.54;59.54;100723.44;5011310;28;20057;-74
2022/01/20 12:24:35;;;;;;;10.85;2.45;;;;;;;2.51;59.73;100740.69;5010941;28;20073;-76
2022/01/20 12:27:02;;;;;;;11.23;2.15;;;;;;;2.41;60.26;100729.09;5007874;28;20030;-75
2022/01/20 12:29:35;;;;;;;15.13;3.17;;;;;;;2.44;60.43;100717.88;5010960;28;20030;-75
2022/01/20 12:32:01;;;;;;;17.23;2.88;;;;;;;2.39;59.88;100707.34;5011095;28;20400;-75
2022/01/20 12:34:27;;;;;;;13.50;2.55;;;;;;;2.40;60.95;100701.28;5011030;28;20038;-75
2022/01/20 12:36:54;;;;;;;12.20;2.38;;;;;;;2.49;60.87;100708.47;5010948;28;20091;-75
2022/01/20 12:39:26;;;;;;;12.23;1.92;;;;;;;2.62;61.67;100711.50;5011329;28;20116;-75
2022/01/20 12:42:11;;;;;;;13.80;2.20;;;;;;;2.72;61.35;100699.59;5011260;28;20042;-75